Auburn, Nebraska
Current Conditions -  °F | °C
As of 6:55 AM on Thursday 27 Nov 2014 (Local Time) from KAFK Reporting Station
Overcast Overcast  
Wind Chill: 10°   Ceiling: 9500
Heat Index: 17°   Visibility: 10mi
Dew Point: 12°   Wind: 5mph
Humidity: 80%   Direction: 90°E
Pressure: 30.48"   Gusts: NA
Location:  40.39°N, 95.84°W
Report Text: KAFK 271255Z AUTO 09004KT 10SM OVC095 M08/M11 A3048 RMK AO2 T10821111
Loading
Personal Weather Stations






























Interactive Weather Map New forecast layout! Learn more

10-Day Weather Forecast

Advertisements
Track Severe Weather on mobile